sensor_id;sensor_type;location;lat;lon;timestamp;P1;durP1;ratioP1;P2;durP2;ratioP2
22929;SDS011;11630;42.660;23.292;2022-11-15T00:00:26;65.33;;;36.73;;
22929;SDS011;11630;42.660;23.292;2022-11-15T00:02:56;56.77;;;35.17;;
22929;SDS011;11630;42.660;23.292;2022-11-15T00:05:27;61.17;;;33.87;;
22929;SDS011;11630;42.660;23.292;2022-11-15T00:07:57;56.40;;;33.93;;
22929;SDS011;11630;42.660;23.292;2022-11-15T00:10:28;53.10;;;32.33;;
22929;SDS011;11630;42.660;23.292;2022-11-15T00:12:58;56.60;;;32.47;;
22929;SDS011;11630;42.660;23.292;2022-11-15T00:15:30;53.60;;;30.67;;
22929;SDS011;11630;42.660;23.292;2022-11-15T00:18:01;52.77;;;29.90;;
22929;SDS011;11630;42.660;23.292;2022-11-15T00:20:35;50.30;;;29.63;;
22929;SDS011;11630;42.660;23.292;2022-11-15T00:23:06;58.07;;;30.70;;
22929;SDS011;11630;42.660;23.292;2022-11-15T00:25:36;52.30;;;29.60;;
22929;SDS011;11630;42.660;23.292;2022-11-15T00:28:06;51.97;;;28.83;;
22929;SDS011;11630;42.660;23.292;2022-11-15T00:30:37;42.77;;;26.53;;
22929;SDS011;11630;42.660;23.292;2022-11-15T00:33:09;48.40;;;28.43;;
22929;SDS011;11630;42.660;23.292;2022-11-15T00:35:40;46.07;;;27.13;;
22929;SDS011;11630;42.660;23.292;2022-11-15T00:38:10;46.10;;;27.47;;
22929;SDS011;11630;42.660;23.292;2022-11-15T00:40:41;44.47;;;26.20;;
22929;SDS011;11630;42.660;23.292;2022-11-15T00:43:12;46.60;;;27.70;;
22929;SDS011;11630;42.660;23.292;2022-11-15T00:45:43;56.60;;;32.03;;
22929;SDS011;11630;42.660;23.292;2022-11-15T00:48:14;52.63;;;32.07;;
22929;SDS011;11630;42.660;23.292;2022-11-15T00:50:45;59.13;;;33.70;;
22929;SDS011;11630;42.660;23.292;2022-11-15T00:53:17;55.47;;;30.67;;
22929;SDS011;11630;42.660;23.292;2022-11-15T00:55:47;50.67;;;29.60;;
22929;SDS011;11630;42.660;23.292;2022-11-15T00:58:18;63.97;;;32.83;;
22929;SDS011;11630;42.660;23.292;2022-11-15T01:00:49;63.27;;;35.40;;
22929;SDS011;11630;42.660;23.292;2022-11-15T01:03:19;62.07;;;37.23;;
22929;SDS011;11630;42.660;23.292;2022-11-15T01:05:49;53.00;;;31.97;;
22929;SDS011;11630;42.660;23.292;2022-11-15T01:08:20;61.43;;;35.27;;
22929;SDS011;11630;42.660;23.292;2022-11-15T01:10:51;64.17;;;34.33;;
22929;SDS011;11630;42.660;23.292;2022-11-15T01:13:21;63.07;;;34.10;;
22929;SDS011;11630;42.660;23.292;2022-11-15T01:15:53;54.77;;;32.60;;
22929;SDS011;11630;42.660;23.292;2022-11-15T01:18:24;50.57;;;31.03;;
22929;SDS011;11630;42.660;23.292;2022-11-15T01:20:53;50.60;;;30.43;;
22929;SDS011;11630;42.660;23.292;2022-11-15T01:23:24;55.53;;;32.60;;
22929;SDS011;11630;42.660;23.292;2022-11-15T01:25:58;62.50;;;34.43;;
22929;SDS011;11630;42.660;23.292;2022-11-15T01:28:31;60.93;;;34.17;;
22929;SDS011;11630;42.660;23.292;2022-11-15T01:31:05;64.17;;;34.30;;
22929;SDS011;11630;42.660;23.292;2022-11-15T01:33:36;58.60;;;34.07;;
22929;SDS011;11630;42.660;23.292;2022-11-15T01:36:08;57.77;;;32.90;;
22929;SDS011;11630;42.660;23.292;2022-11-15T01:38:54;54.90;;;33.00;;
22929;SDS011;11630;42.660;23.292;2022-11-15T01:41:26;61.20;;;33.00;;
22929;SDS011;11630;42.660;23.292;2022-11-15T01:44:25;59.20;;;32.90;;
22929;SDS011;11630;42.660;23.292;2022-11-15T01:46:46;57.70;;;32.70;;
22929;SDS011;11630;42.660;23.292;2022-11-15T01:49:18;54.80;;;32.03;;
22929;SDS011;11630;42.660;23.292;2022-11-15T01:51:49;53.77;;;31.80;;
22929;SDS011;11630;42.660;23.292;2022-11-15T01:54:20;55.23;;;31.37;;
22929;SDS011;11630;42.660;23.292;2022-11-15T01:56:53;51.30;;;29.87;;
22929;SDS011;11630;42.660;23.292;2022-11-15T01:59:24;53.53;;;32.00;;
22929;SDS011;11630;42.660;23.292;2022-11-15T02:01:56;50.00;;;29.57;;
22929;SDS011;11630;42.660;23.292;2022-11-15T02:04:26;43.73;;;29.27;;
22929;SDS011;11630;42.660;23.292;2022-11-15T02:06:57;55.67;;;31.37;;
22929;SDS011;11630;42.660;23.292;2022-11-15T02:09:29;55.83;;;31.47;;
22929;SDS011;11630;42.660;23.292;2022-11-15T02:12:00;53.10;;;31.37;;
22929;SDS011;11630;42.660;23.292;2022-11-15T02:14:30;56.67;;;33.00;;
22929;SDS011;11630;42.660;23.292;2022-11-15T02:20:13;56.90;;;31.70;;
22929;SDS011;11630;42.660;23.292;2022-11-15T02:31:21;47.57;;;29.97;;
22929;SDS011;11630;42.660;23.292;2022-11-15T02:34:09;52.30;;;31.43;;
22929;SDS011;11630;42.660;23.292;2022-11-15T02:36:43;48.57;;;28.60;;
22929;SDS011;11630;42.660;23.292;2022-11-15T02:39:16;52.03;;;29.10;;
22929;SDS011;11630;42.660;23.292;2022-11-15T02:41:56;47.67;;;29.60;;
22929;SDS011;11630;42.660;23.292;2022-11-15T02:44:39;49.87;;;29.70;;
22929;SDS011;11630;42.660;23.292;2022-11-15T02:47:12;54.60;;;30.47;;
22929;SDS011;11630;42.660;23.292;2022-11-15T02:49:48;58.03;;;31.43;;
22929;SDS011;11630;42.660;23.292;2022-11-15T02:52:22;53.20;;;30.17;;
22929;SDS011;11630;42.660;23.292;2022-11-15T02:54:54;44.70;;;26.87;;
22929;SDS011;11630;42.660;23.292;2022-11-15T03:00:15;47.87;;;28.33;;
22929;SDS011;11630;42.660;23.292;2022-11-15T03:08:30;49.20;;;29.20;;
22929;SDS011;11630;42.660;23.292;2022-11-15T03:11:14;50.43;;;28.63;;
22929;SDS011;11630;42.660;23.292;2022-11-15T03:16:51;50.30;;;30.77;;
22929;SDS011;11630;42.660;23.292;2022-11-15T03:19:30;46.87;;;29.30;;
22929;SDS011;11630;42.660;23.292;2022-11-15T03:22:04;49.93;;;30.57;;
22929;SDS011;11630;42.660;23.292;2022-11-15T03:24:36;49.47;;;29.47;;
22929;SDS011;11630;42.660;23.292;2022-11-15T03:27:11;59.57;;;34.33;;
22929;SDS011;11630;42.660;23.292;2022-11-15T03:29:44;52.83;;;30.30;;
22929;SDS011;11630;42.660;23.292;2022-11-15T03:32:18;52.53;;;30.87;;
22929;SDS011;11630;42.660;23.292;2022-11-15T03:34:58;51.90;;;29.07;;
22929;SDS011;11630;42.660;23.292;2022-11-15T03:40:11;48.10;;;29.70;;
22929;SDS011;11630;42.660;23.292;2022-11-15T03:43:01;45.67;;;30.47;;
22929;SDS011;11630;42.660;23.292;2022-11-15T03:45:56;52.77;;;30.07;;
22929;SDS011;11630;42.660;23.292;2022-11-15T03:48:27;47.80;;;27.73;;
22929;SDS011;11630;42.660;23.292;2022-11-15T03:50:58;52.73;;;28.60;;
22929;SDS011;11630;42.660;23.292;2022-11-15T03:53:29;45.13;;;28.97;;
22929;SDS011;11630;42.660;23.292;2022-11-15T03:56:02;85.83;;;40.00;;
22929;SDS011;11630;42.660;23.292;2022-11-15T03:58:32;82.37;;;39.23;;
22929;SDS011;11630;42.660;23.292;2022-11-15T04:01:03;80.03;;;39.80;;
22929;SDS011;11630;42.660;23.292;2022-11-15T04:03:34;84.73;;;39.73;;
22929;SDS011;11630;42.660;23.292;2022-11-15T04:06:05;88.77;;;41.13;;
22929;SDS011;11630;42.660;23.292;2022-11-15T04:08:36;82.83;;;39.47;;
22929;SDS011;11630;42.660;23.292;2022-11-15T04:11:07;87.23;;;37.53;;
22929;SDS011;11630;42.660;23.292;2022-11-15T04:13:38;88.60;;;40.87;;
22929;SDS011;11630;42.660;23.292;2022-11-15T04:16:09;82.20;;;43.33;;
22929;SDS011;11630;42.660;23.292;2022-11-15T04:18:45;92.27;;;40.77;;
22929;SDS011;11630;42.660;23.292;2022-11-15T04:21:16;76.97;;;39.13;;
22929;SDS011;11630;42.660;23.292;2022-11-15T04:24:04;79.43;;;38.77;;
22929;SDS011;11630;42.660;23.292;2022-11-15T04:26:35;87.93;;;40.97;;
22929;SDS011;11630;42.660;23.292;2022-11-15T04:29:06;79.87;;;39.33;;
22929;SDS011;11630;42.660;23.292;2022-11-15T04:31:53;80.57;;;37.70;;
22929;SDS011;11630;42.660;23.292;2022-11-15T04:34:24;76.97;;;40.00;;
22929;SDS011;11630;42.660;23.292;2022-11-15T04:36:55;86.07;;;40.70;;
22929;SDS011;11630;42.660;23.292;2022-11-15T04:39:39;86.63;;;39.73;;
22929;SDS011;11630;42.660;23.292;2022-11-15T04:42:12;81.27;;;38.73;;
22929;SDS011;11630;42.660;23.292;2022-11-15T04:44:43;77.00;;;35.10;;
22929;SDS011;11630;42.660;23.292;2022-11-15T04:47:13;71.77;;;36.73;;
22929;SDS011;11630;42.660;23.292;2022-11-15T04:49:45;83.93;;;39.57;;
22929;SDS011;11630;42.660;23.292;2022-11-15T04:52:16;74.50;;;37.00;;
22929;SDS011;11630;42.660;23.292;2022-11-15T04:54:47;66.70;;;34.90;;
22929;SDS011;11630;42.660;23.292;2022-11-15T04:57:23;66.03;;;34.33;;
22929;SDS011;11630;42.660;23.292;2022-11-15T05:00:02;65.43;;;33.70;;
22929;SDS011;11630;42.660;23.292;2022-11-15T05:02:36;67.93;;;34.60;;
22929;SDS011;11630;42.660;23.292;2022-11-15T05:05:23;59.77;;;33.67;;
22929;SDS011;11630;42.660;23.292;2022-11-15T05:07:54;57.37;;;31.97;;
22929;SDS011;11630;42.660;23.292;2022-11-15T05:10:25;57.77;;;30.20;;
22929;SDS011;11630;42.660;23.292;2022-11-15T05:12:56;69.17;;;34.87;;
22929;SDS011;11630;42.660;23.292;2022-11-15T05:15:28;62.07;;;35.57;;
22929;SDS011;11630;42.660;23.292;2022-11-15T05:17:59;74.40;;;36.57;;
22929;SDS011;11630;42.660;23.292;2022-11-15T05:20:30;82.27;;;39.73;;
22929;SDS011;11630;42.660;23.292;2022-11-15T05:23:00;83.63;;;38.40;;
22929;SDS011;11630;42.660;23.292;2022-11-15T05:25:32;93.00;;;42.20;;
22929;SDS011;11630;42.660;23.292;2022-11-15T05:28:04;84.67;;;40.20;;
22929;SDS011;11630;42.660;23.292;2022-11-15T05:30:35;97.67;;;42.60;;
22929;SDS011;11630;42.660;23.292;2022-11-15T05:33:06;85.63;;;43.73;;
22929;SDS011;11630;42.660;23.292;2022-11-15T05:35:41;85.63;;;43.13;;
22929;SDS011;11630;42.660;23.292;2022-11-15T05:38:11;99.90;;;40.80;;
22929;SDS011;11630;42.660;23.292;2022-11-15T05:40:42;86.90;;;41.87;;
22929;SDS011;11630;42.660;23.292;2022-11-15T05:43:13;88.67;;;42.17;;
22929;SDS011;11630;42.660;23.292;2022-11-15T05:45:43;83.03;;;41.17;;
22929;SDS011;11630;42.660;23.292;2022-11-15T05:48:14;84.63;;;39.90;;
22929;SDS011;11630;42.660;23.292;2022-11-15T05:50:46;82.63;;;41.10;;
22929;SDS011;11630;42.660;23.292;2022-11-15T05:53:17;73.17;;;38.77;;
22929;SDS011;11630;42.660;23.292;2022-11-15T05:55:51;73.47;;;37.80;;
22929;SDS011;11630;42.660;23.292;2022-11-15T05:58:25;82.37;;;39.77;;
22929;SDS011;11630;42.660;23.292;2022-11-15T06:00:56;81.53;;;38.73;;
22929;SDS011;11630;42.660;23.292;2022-11-15T06:03:28;87.07;;;41.00;;
22929;SDS011;11630;42.660;23.292;2022-11-15T06:05:59;82.23;;;41.33;;
22929;SDS011;11630;42.660;23.292;2022-11-15T06:08:31;106.53;;;42.67;;
22929;SDS011;11630;42.660;23.292;2022-11-15T06:11:08;95.97;;;44.90;;
22929;SDS011;11630;42.660;23.292;2022-11-15T06:13:39;84.40;;;41.07;;
22929;SDS011;11630;42.660;23.292;2022-11-15T06:16:09;94.13;;;44.57;;
22929;SDS011;11630;42.660;23.292;2022-11-15T06:18:40;102.27;;;46.33;;
22929;SDS011;11630;42.660;23.292;2022-11-15T06:21:09;90.83;;;45.77;;
22929;SDS011;11630;42.660;23.292;2022-11-15T06:23:40;94.07;;;46.37;;
22929;SDS011;11630;42.660;23.292;2022-11-15T06:26:11;92.27;;;43.47;;
22929;SDS011;11630;42.660;23.292;2022-11-15T06:28:42;88.40;;;42.30;;
22929;SDS011;11630;42.660;23.292;2022-11-15T06:31:13;110.83;;;45.57;;
22929;SDS011;11630;42.660;23.292;2022-11-15T06:33:43;96.07;;;45.63;;
22929;SDS011;11630;42.660;23.292;2022-11-15T06:36:15;100.73;;;45.93;;
22929;SDS011;11630;42.660;23.292;2022-11-15T06:38:46;99.90;;;45.00;;
22929;SDS011;11630;42.660;23.292;2022-11-15T06:41:17;100.43;;;42.23;;
22929;SDS011;11630;42.660;23.292;2022-11-15T06:43:48;93.80;;;44.10;;
22929;SDS011;11630;42.660;23.292;2022-11-15T06:46:19;104.80;;;46.57;;
22929;SDS011;11630;42.660;23.292;2022-11-15T06:48:52;111.80;;;45.40;;
22929;SDS011;11630;42.660;23.292;2022-11-15T06:51:27;105.70;;;46.57;;
22929;SDS011;11630;42.660;23.292;2022-11-15T06:53:58;103.83;;;47.70;;
22929;SDS011;11630;42.660;23.292;2022-11-15T06:56:29;117.77;;;45.37;;
22929;SDS011;11630;42.660;23.292;2022-11-15T06:59:00;115.07;;;49.50;;
22929;SDS011;11630;42.660;23.292;2022-11-15T07:01:31;105.23;;;47.37;;
22929;SDS011;11630;42.660;23.292;2022-11-15T07:04:07;119.87;;;51.63;;
22929;SDS011;11630;42.660;23.292;2022-11-15T07:06:38;125.57;;;51.83;;
22929;SDS011;11630;42.660;23.292;2022-11-15T07:09:09;122.90;;;51.03;;
22929;SDS011;11630;42.660;23.292;2022-11-15T07:11:40;117.10;;;52.67;;
22929;SDS011;11630;42.660;23.292;2022-11-15T07:14:11;113.23;;;51.83;;
22929;SDS011;11630;42.660;23.292;2022-11-15T07:16:42;120.83;;;54.23;;
22929;SDS011;11630;42.660;23.292;2022-11-15T07:19:13;125.00;;;53.67;;
22929;SDS011;11630;42.660;23.292;2022-11-15T07:21:44;129.80;;;54.57;;
22929;SDS011;11630;42.660;23.292;2022-11-15T07:24:15;134.20;;;55.43;;
22929;SDS011;11630;42.660;23.292;2022-11-15T07:26:45;139.07;;;57.70;;
22929;SDS011;11630;42.660;23.292;2022-11-15T07:29:16;131.27;;;53.77;;
22929;SDS011;11630;42.660;23.292;2022-11-15T07:31:48;135.33;;;55.13;;
22929;SDS011;11630;42.660;23.292;2022-11-15T07:34:19;127.80;;;56.13;;
22929;SDS011;11630;42.660;23.292;2022-11-15T07:36:54;125.73;;;55.87;;
22929;SDS011;11630;42.660;23.292;2022-11-15T07:39:28;146.70;;;58.90;;
22929;SDS011;11630;42.660;23.292;2022-11-15T07:41:59;121.47;;;57.80;;
22929;SDS011;11630;42.660;23.292;2022-11-15T07:44:46;130.00;;;56.47;;
22929;SDS011;11630;42.660;23.292;2022-11-15T07:47:17;146.37;;;58.57;;
22929;SDS011;11630;42.660;23.292;2022-11-15T07:49:49;134.00;;;58.33;;
22929;SDS011;11630;42.660;23.292;2022-11-15T07:52:20;131.10;;;58.63;;
22929;SDS011;11630;42.660;23.292;2022-11-15T07:54:51;132.40;;;58.40;;
22929;SDS011;11630;42.660;23.292;2022-11-15T07:57:21;123.90;;;56.43;;
22929;SDS011;11630;42.660;23.292;2022-11-15T07:59:53;139.03;;;61.63;;
22929;SDS011;11630;42.660;23.292;2022-11-15T08:02:23;148.93;;;64.63;;
22929;SDS011;11630;42.660;23.292;2022-11-15T08:04:54;146.43;;;64.17;;
22929;SDS011;11630;42.660;23.292;2022-11-15T08:07:27;151.07;;;68.77;;
22929;SDS011;11630;42.660;23.292;2022-11-15T08:09:57;140.50;;;61.50;;
22929;SDS011;11630;42.660;23.292;2022-11-15T08:12:28;145.23;;;64.77;;
22929;SDS011;11630;42.660;23.292;2022-11-15T08:14:58;139.60;;;60.80;;
22929;SDS011;11630;42.660;23.292;2022-11-15T08:17:29;140.17;;;64.90;;
22929;SDS011;11630;42.660;23.292;2022-11-15T08:20:01;145.17;;;65.53;;
22929;SDS011;11630;42.660;23.292;2022-11-15T08:22:33;135.30;;;63.00;;
22929;SDS011;11630;42.660;23.292;2022-11-15T08:25:04;149.87;;;69.10;;
22929;SDS011;11630;42.660;23.292;2022-11-15T08:27:35;129.67;;;62.13;;
22929;SDS011;11630;42.660;23.292;2022-11-15T08:30:06;140.60;;;64.60;;
22929;SDS011;11630;42.660;23.292;2022-11-15T08:32:37;136.07;;;60.57;;
22929;SDS011;11630;42.660;23.292;2022-11-15T08:35:08;134.87;;;57.57;;
22929;SDS011;11630;42.660;23.292;2022-11-15T08:37:45;116.87;;;57.03;;
22929;SDS011;11630;42.660;23.292;2022-11-15T08:40:16;116.00;;;55.57;;
22929;SDS011;11630;42.660;23.292;2022-11-15T08:42:48;132.33;;;59.50;;
22929;SDS011;11630;42.660;23.292;2022-11-15T08:45:19;120.67;;;58.57;;
22929;SDS011;11630;42.660;23.292;2022-11-15T08:47:49;124.43;;;58.20;;
22929;SDS011;11630;42.660;23.292;2022-11-15T08:50:20;112.10;;;58.00;;
22929;SDS011;11630;42.660;23.292;2022-11-15T08:52:51;124.83;;;58.57;;
22929;SDS011;11630;42.660;23.292;2022-11-15T08:55:21;133.83;;;60.47;;
22929;SDS011;11630;42.660;23.292;2022-11-15T08:57:56;128.20;;;59.37;;
22929;SDS011;11630;42.660;23.292;2022-11-15T09:00:26;123.13;;;61.17;;
22929;SDS011;11630;42.660;23.292;2022-11-15T09:03:03;135.40;;;65.93;;
22929;SDS011;11630;42.660;23.292;2022-11-15T09:05:35;141.27;;;67.23;;
22929;SDS011;11630;42.660;23.292;2022-11-15T09:08:04;139.67;;;62.90;;
22929;SDS011;11630;42.660;23.292;2022-11-15T09:10:34;137.17;;;65.23;;
22929;SDS011;11630;42.660;23.292;2022-11-15T09:13:05;133.87;;;63.17;;
22929;SDS011;11630;42.660;23.292;2022-11-15T09:15:35;135.87;;;66.10;;
22929;SDS011;11630;42.660;23.292;2022-11-15T09:18:08;142.57;;;68.90;;
22929;SDS011;11630;42.660;23.292;2022-11-15T09:20:37;150.03;;;69.70;;
22929;SDS011;11630;42.660;23.292;2022-11-15T09:23:08;142.73;;;66.30;;
22929;SDS011;11630;42.660;23.292;2022-11-15T09:25:43;150.63;;;67.23;;
22929;SDS011;11630;42.660;23.292;2022-11-15T09:28:13;147.30;;;68.70;;
22929;SDS011;11630;42.660;23.292;2022-11-15T09:30:44;148.80;;;66.60;;
22929;SDS011;11630;42.660;23.292;2022-11-15T09:33:15;135.57;;;65.83;;
22929;SDS011;11630;42.660;23.292;2022-11-15T09:35:46;147.23;;;67.97;;
22929;SDS011;11630;42.660;23.292;2022-11-15T09:38:17;142.77;;;68.80;;
22929;SDS011;11630;42.660;23.292;2022-11-15T09:40:52;136.33;;;68.63;;
22929;SDS011;11630;42.660;23.292;2022-11-15T09:43:25;148.10;;;70.23;;
22929;SDS011;11630;42.660;23.292;2022-11-15T09:46:17;143.03;;;67.90;;
22929;SDS011;11630;42.660;23.292;2022-11-15T09:49:00;136.30;;;67.40;;
22929;SDS011;11630;42.660;23.292;2022-11-15T09:51:35;135.60;;;65.20;;
22929;SDS011;11630;42.660;23.292;2022-11-15T09:56:52;147.83;;;70.27;;
22929;SDS011;11630;42.660;23.292;2022-11-15T09:59:28;143.40;;;67.90;;
22929;SDS011;11630;42.660;23.292;2022-11-15T10:05:09;151.23;;;71.70;;
22929;SDS011;11630;42.660;23.292;2022-11-15T10:12:52;155.47;;;73.47;;
22929;SDS011;11630;42.660;23.292;2022-11-15T10:15:24;156.27;;;70.57;;
22929;SDS011;11630;42.660;23.292;2022-11-15T10:18:03;160.03;;;72.80;;
22929;SDS011;11630;42.660;23.292;2022-11-15T10:20:40;160.63;;;71.17;;
22929;SDS011;11630;42.660;23.292;2022-11-15T10:23:06;159.23;;;73.10;;
22929;SDS011;11630;42.660;23.292;2022-11-15T10:25:38;155.00;;;71.57;;
22929;SDS011;11630;42.660;23.292;2022-11-15T10:28:11;164.77;;;71.20;;
22929;SDS011;11630;42.660;23.292;2022-11-15T10:30:46;155.60;;;70.77;;
22929;SDS011;11630;42.660;23.292;2022-11-15T10:33:34;158.90;;;73.37;;
22929;SDS011;11630;42.660;23.292;2022-11-15T10:38:54;134.47;;;68.90;;
22929;SDS011;11630;42.660;23.292;2022-11-15T10:41:32;148.33;;;69.83;;
22929;SDS011;11630;42.660;23.292;2022-11-15T10:44:19;140.30;;;68.83;;
22929;SDS011;11630;42.660;23.292;2022-11-15T10:49:34;143.20;;;65.80;;
22929;SDS011;11630;42.660;23.292;2022-11-15T10:52:13;130.10;;;66.93;;
22929;SDS011;11630;42.660;23.292;2022-11-15T10:54:46;138.77;;;66.63;;
22929;SDS011;11630;42.660;23.292;2022-11-15T10:57:21;136.87;;;66.90;;
22929;SDS011;11630;42.660;23.292;2022-11-15T10:59:52;135.03;;;66.90;;
22929;SDS011;11630;42.660;23.292;2022-11-15T11:02:34;138.20;;;64.63;;
22929;SDS011;11630;42.660;23.292;2022-11-15T11:08:01;126.77;;;59.23;;
22929;SDS011;11630;42.660;23.292;2022-11-15T11:10:32;113.50;;;60.03;;
22929;SDS011;11630;42.660;23.292;2022-11-15T11:13:13;114.00;;;57.40;;
22929;SDS011;11630;42.660;23.292;2022-11-15T11:15:45;103.87;;;54.10;;
22929;SDS011;11630;42.660;23.292;2022-11-15T11:18:22;109.10;;;54.20;;
22929;SDS011;11630;42.660;23.292;2022-11-15T11:20:58;110.27;;;56.63;;
22929;SDS011;11630;42.660;23.292;2022-11-15T11:23:38;98.33;;;53.30;;
22929;SDS011;11630;42.660;23.292;2022-11-15T11:32:01;101.63;;;51.17;;
22929;SDS011;11630;42.660;23.292;2022-11-15T11:34:41;100.63;;;55.63;;
22929;SDS011;11630;42.660;23.292;2022-11-15T11:50:44;99.53;;;57.53;;
22929;SDS011;11630;42.660;23.292;2022-11-15T11:55:58;102.40;;;57.33;;
22929;SDS011;11630;42.660;23.292;2022-11-15T11:58:34;110.17;;;58.47;;
22929;SDS011;11630;42.660;23.292;2022-11-15T12:01:14;104.87;;;58.07;;
22929;SDS011;11630;42.660;23.292;2022-11-15T12:03:55;110.93;;;57.07;;
22929;SDS011;11630;42.660;23.292;2022-11-15T12:06:35;110.70;;;56.90;;
22929;SDS011;11630;42.660;23.292;2022-11-15T12:09:07;111.23;;;59.40;;
22929;SDS011;11630;42.660;23.292;2022-11-15T12:11:49;102.40;;;55.73;;
22929;SDS011;11630;42.660;23.292;2022-11-15T12:14:56;108.07;;;58.93;;
22929;SDS011;11630;42.660;23.292;2022-11-15T12:17:12;102.63;;;55.23;;
22929;SDS011;11630;42.660;23.292;2022-11-15T12:19:45;102.33;;;58.77;;
22929;SDS011;11630;42.660;23.292;2022-11-15T12:25:02;100.93;;;55.67;;
22929;SDS011;11630;42.660;23.292;2022-11-15T12:27:39;111.20;;;58.27;;
22929;SDS011;11630;42.660;23.292;2022-11-15T12:30:13;110.57;;;58.23;;
22929;SDS011;11630;42.660;23.292;2022-11-15T12:32:49;93.93;;;53.23;;
22929;SDS011;11630;42.660;23.292;2022-11-15T12:35:36;112.53;;;60.73;;
22929;SDS011;11630;42.660;23.292;2022-11-15T12:38:12;102.10;;;56.10;;
22929;SDS011;11630;42.660;23.292;2022-11-15T12:41:12;100.33;;;55.87;;
22929;SDS011;11630;42.660;23.292;2022-11-15T12:43:40;96.07;;;53.80;;
22929;SDS011;11630;42.660;23.292;2022-11-15T12:46:21;94.77;;;53.53;;
22929;SDS011;11630;42.660;23.292;2022-11-15T12:49:09;93.67;;;54.40;;
22929;SDS011;11630;42.660;23.292;2022-11-15T12:59:50;100.57;;;54.63;;
22929;SDS011;11630;42.660;23.292;2022-11-15T13:02:43;96.53;;;55.50;;
22929;SDS011;11630;42.660;23.292;2022-11-15T13:05:27;103.87;;;54.90;;
22929;SDS011;11630;42.660;23.292;2022-11-15T13:07:56;106.40;;;55.57;;
22929;SDS011;11630;42.660;23.292;2022-11-15T13:10:32;92.50;;;52.33;;
22929;SDS011;11630;42.660;23.292;2022-11-15T13:13:08;97.43;;;53.20;;
22929;SDS011;11630;42.660;23.292;2022-11-15T13:21:01;82.20;;;47.67;;
22929;SDS011;11630;42.660;23.292;2022-11-15T13:23:36;72.50;;;43.37;;
22929;SDS011;11630;42.660;23.292;2022-11-15T13:26:14;68.57;;;39.93;;
22929;SDS011;11630;42.660;23.292;2022-11-15T13:28:46;82.37;;;45.57;;
22929;SDS011;11630;42.660;23.292;2022-11-15T13:34:00;76.07;;;45.10;;
22929;SDS011;11630;42.660;23.292;2022-11-15T13:36:32;80.27;;;46.60;;
22929;SDS011;11630;42.660;23.292;2022-11-15T13:39:27;84.60;;;45.20;;
22929;SDS011;11630;42.660;23.292;2022-11-15T13:42:03;86.00;;;47.93;;
22929;SDS011;11630;42.660;23.292;2022-11-15T13:44:35;86.83;;;50.03;;
22929;SDS011;11630;42.660;23.292;2022-11-15T13:47:13;78.80;;;47.13;;
22929;SDS011;11630;42.660;23.292;2022-11-15T13:49:44;80.20;;;48.13;;
22929;SDS011;11630;42.660;23.292;2022-11-15T13:52:15;87.80;;;49.90;;
22929;SDS011;11630;42.660;23.292;2022-11-15T13:54:50;83.33;;;48.80;;
22929;SDS011;11630;42.660;23.292;2022-11-15T13:57:28;88.23;;;51.67;;
22929;SDS011;11630;42.660;23.292;2022-11-15T14:00:05;94.47;;;50.13;;
22929;SDS011;11630;42.660;23.292;2022-11-15T14:02:34;83.77;;;49.17;;
22929;SDS011;11630;42.660;23.292;2022-11-15T14:05:16;85.73;;;52.03;;
22929;SDS011;11630;42.660;23.292;2022-11-15T14:08:00;90.07;;;49.77;;
22929;SDS011;11630;42.660;23.292;2022-11-15T14:10:35;106.03;;;51.73;;
22929;SDS011;11630;42.660;23.292;2022-11-15T14:13:26;90.57;;;52.43;;
22929;SDS011;11630;42.660;23.292;2022-11-15T14:16:18;88.07;;;48.60;;
22929;SDS011;11630;42.660;23.292;2022-11-15T14:18:50;83.17;;;49.20;;
22929;SDS011;11630;42.660;23.292;2022-11-15T14:21:21;97.87;;;50.67;;
22929;SDS011;11630;42.660;23.292;2022-11-15T14:23:52;87.40;;;50.00;;
22929;SDS011;11630;42.660;23.292;2022-11-15T14:26:41;99.00;;;53.10;;
22929;SDS011;11630;42.660;23.292;2022-11-15T14:29:27;89.20;;;50.20;;
22929;SDS011;11630;42.660;23.292;2022-11-15T14:34:44;89.33;;;52.90;;
22929;SDS011;11630;42.660;23.292;2022-11-15T14:39:50;97.13;;;56.00;;
22929;SDS011;11630;42.660;23.292;2022-11-15T14:42:21;105.80;;;54.83;;
22929;SDS011;11630;42.660;23.292;2022-11-15T14:44:52;97.57;;;55.20;;
22929;SDS011;11630;42.660;23.292;2022-11-15T14:47:23;95.80;;;57.37;;
22929;SDS011;11630;42.660;23.292;2022-11-15T14:49:54;111.70;;;60.73;;
22929;SDS011;11630;42.660;23.292;2022-11-15T14:52:27;109.87;;;62.27;;
22929;SDS011;11630;42.660;23.292;2022-11-15T14:55:02;131.03;;;65.33;;
22929;SDS011;11630;42.660;23.292;2022-11-15T14:57:33;124.87;;;70.80;;
22929;SDS011;11630;42.660;23.292;2022-11-15T15:00:04;118.97;;;67.13;;
22929;SDS011;11630;42.660;23.292;2022-11-15T15:02:36;132.33;;;72.63;;
22929;SDS011;11630;42.660;23.292;2022-11-15T15:05:26;134.67;;;71.03;;
22929;SDS011;11630;42.660;23.292;2022-11-15T15:07:45;134.43;;;73.73;;
22929;SDS011;11630;42.660;23.292;2022-11-15T15:10:18;118.30;;;69.67;;
22929;SDS011;11630;42.660;23.292;2022-11-15T15:12:49;127.50;;;74.20;;
22929;SDS011;11630;42.660;23.292;2022-11-15T15:15:25;133.43;;;74.60;;
22929;SDS011;11630;42.660;23.292;2022-11-15T15:17:56;137.20;;;79.27;;
22929;SDS011;11630;42.660;23.292;2022-11-15T15:20:27;131.83;;;73.20;;
22929;SDS011;11630;42.660;23.292;2022-11-15T15:22:58;145.90;;;73.73;;
22929;SDS011;11630;42.660;23.292;2022-11-15T15:25:30;141.50;;;74.97;;
22929;SDS011;11630;42.660;23.292;2022-11-15T15:28:03;135.03;;;74.20;;
22929;SDS011;11630;42.660;23.292;2022-11-15T15:30:34;132.87;;;73.10;;
22929;SDS011;11630;42.660;23.292;2022-11-15T15:33:04;143.57;;;76.23;;
22929;SDS011;11630;42.660;23.292;2022-11-15T15:35:36;133.97;;;75.73;;
22929;SDS011;11630;42.660;23.292;2022-11-15T15:38:08;138.93;;;73.03;;
22929;SDS011;11630;42.660;23.292;2022-11-15T15:40:40;138.70;;;77.73;;
22929;SDS011;11630;42.660;23.292;2022-11-15T15:43:13;149.07;;;78.53;;
22929;SDS011;11630;42.660;23.292;2022-11-15T15:45:48;151.27;;;79.57;;
22929;SDS011;11630;42.660;23.292;2022-11-15T15:48:18;148.73;;;77.00;;
22929;SDS011;11630;42.660;23.292;2022-11-15T15:50:49;136.70;;;75.90;;
22929;SDS011;11630;42.660;23.292;2022-11-15T15:53:20;153.33;;;79.60;;
22929;SDS011;11630;42.660;23.292;2022-11-15T15:55:51;150.60;;;83.87;;
22929;SDS011;11630;42.660;23.292;2022-11-15T15:58:22;142.17;;;80.30;;
22929;SDS011;11630;42.660;23.292;2022-11-15T16:00:53;162.80;;;79.70;;
22929;SDS011;11630;42.660;23.292;2022-11-15T16:03:24;146.03;;;78.83;;
22929;SDS011;11630;42.660;23.292;2022-11-15T16:05:56;142.97;;;78.37;;
22929;SDS011;11630;42.660;23.292;2022-11-15T16:08:27;151.00;;;80.30;;
22929;SDS011;11630;42.660;23.292;2022-11-15T16:10:57;141.17;;;77.73;;